createdAt,value
2018-11-10T00:00:44.056Z,87.25
2018-11-10T00:03:49.061Z,86.99
2018-11-10T00:06:55.972Z,87.20
2018-11-10T00:10:01.022Z,86.49
2018-11-10T00:13:06.112Z,86.33
2018-11-10T00:16:13.209Z,85.06
2018-11-10T00:19:20.285Z,85.14
2018-11-10T00:22:25.319Z,86.26
2018-11-10T00:25:32.197Z,86.08
2018-11-10T00:28:37.216Z,87.30
2018-11-10T00:31:42.306Z,86.97
2018-11-10T00:34:47.368Z,87.59
2018-11-10T00:37:56.474Z,86.95
2018-11-10T00:41:01.523Z,87.29
2018-11-10T00:44:14.303Z,86.81
2018-11-10T00:47:30.281Z,86.83
2018-11-10T00:50:39.243Z,86.63
2018-11-10T00:53:44.393Z,85.55
2018-11-10T00:56:59.755Z,85.82
2018-11-10T01:00:05.277Z,86.47
2018-11-10T01:03:12.177Z,86.06
2018-11-10T01:06:17.211Z,84.72
2018-11-10T01:09:24.099Z,85.27
2018-11-10T01:12:30.155Z,85.03
2018-11-10T01:15:36.718Z,85.04
2018-11-10T01:18:45.434Z,85.18
2018-11-10T01:21:52.567Z,85.17
2018-11-10T01:24:59.511Z,85.69
2018-11-10T01:28:04.775Z,85.46
2018-11-10T01:31:11.731Z,86.01
2018-11-10T01:34:20.874Z,85.27
2018-11-10T01:37:27.424Z,85.43
2018-11-10T01:40:36.460Z,84.86
2018-11-10T01:43:43.133Z,84.38
2018-11-10T01:46:48.162Z,85.33
2018-11-10T01:49:58.873Z,84.86
2018-11-10T01:53:06.961Z,84.53
2018-11-10T01:56:13.582Z,84.63
2018-11-10T01:59:18.643Z,84.69
2018-11-10T02:02:23.655Z,84.07
2018-11-10T02:05:30.508Z,84.16
2018-11-10T02:08:37.717Z,83.79
2018-11-10T02:11:42.783Z,84.76
2018-11-10T02:14:47.817Z,84.84
2018-11-10T02:17:54.454Z,85.46
2018-11-10T02:20:59.506Z,84.48
2018-11-10T02:24:08.379Z,84.46
2018-11-10T02:27:19.331Z,84.37
2018-11-10T02:30:24.353Z,84.79
2018-11-10T02:33:31.284Z,84.39
2018-11-10T02:36:38.473Z,85.02
2018-11-10T02:39:43.477Z,83.90
2018-11-10T02:42:48.470Z,83.78
2018-11-10T02:46:10.197Z,83.82
2018-11-10T02:49:16.841Z,84.01
2018-11-10T02:52:23.943Z,84.46
2018-11-10T02:55:30.043Z,83.42
2018-11-10T02:58:38.409Z,83.91
2018-11-10T03:01:45.090Z,83.04
2018-11-10T03:04:50.079Z,83.50
2018-11-10T03:07:55.122Z,83.15
2018-11-10T03:11:00.088Z,83.76
2018-11-10T03:14:05.474Z,84.21
2018-11-10T03:17:12.520Z,84.14
2018-11-10T03:20:17.562Z,82.93
2018-11-10T03:23:24.155Z,82.63
2018-11-10T03:26:31.044Z,82.55
2018-11-10T03:29:37.911Z,84.21
2018-11-10T03:32:44.808Z,84.28
2018-11-10T03:35:57.073Z,84.59
2018-11-10T03:39:06.370Z,83.85
2018-11-10T03:42:13.470Z,84.32
2018-11-10T03:45:20.091Z,85.00
2018-11-10T03:48:27.115Z,84.74
2018-11-10T03:51:33.718Z,83.66
2018-11-10T03:54:38.772Z,84.70
2018-11-10T03:57:45.768Z,84.03
2018-11-10T04:00:54.669Z,85.10
2018-11-10T04:04:01.362Z,84.15
2018-11-10T04:07:06.382Z,84.40
2018-11-10T04:10:14.204Z,85.09
2018-11-10T04:13:21.025Z,85.15
2018-11-10T04:16:26.061Z,85.20
2018-11-10T04:19:32.718Z,84.07
2018-11-10T04:22:55.366Z,83.27
2018-11-10T04:26:00.418Z,83.80
2018-11-10T04:29:07.333Z,83.79
2018-11-10T04:32:12.355Z,83.72
2018-11-10T04:35:17.362Z,84.75
2018-11-10T04:38:24.315Z,84.51
2018-11-10T04:41:29.309Z,84.00
2018-11-10T04:44:35.950Z,84.21
2018-11-10T04:47:42.935Z,84.00
2018-11-10T04:50:51.884Z,83.30
2018-11-10T04:53:57.033Z,83.77
2018-11-10T04:57:04.222Z,82.87
2018-11-10T05:00:11.821Z,83.89
2018-11-10T05:03:18.443Z,85.22
2018-11-10T05:06:23.453Z,84.58
2018-11-10T05:09:28.526Z,85.34
2018-11-10T05:15:04.845Z,84.91
2018-11-10T05:18:11.570Z,85.28
2018-11-10T05:21:16.670Z,85.88
2018-11-10T05:24:21.666Z,85.21
2018-11-10T05:27:26.681Z,86.45
2018-11-10T05:30:31.665Z,85.50
2018-11-10T05:33:36.673Z,85.75
2018-11-10T05:36:43.273Z,85.96
2018-11-10T05:39:48.326Z,86.17
2018-11-10T05:42:57.302Z,86.68
2018-11-10T05:46:02.307Z,85.65
2018-11-10T05:49:09.088Z,86.41
2018-11-10T05:52:16.102Z,86.77
2018-11-10T05:55:22.197Z,86.52
2018-11-10T05:58:27.243Z,85.96
2018-11-10T06:01:33.879Z,86.79
2018-11-10T06:04:38.892Z,86.44
2018-11-10T06:07:45.909Z,85.73
2018-11-10T06:10:52.667Z,85.80
2018-11-10T06:14:01.685Z,86.33
2018-11-10T06:17:06.871Z,85.48
2018-11-10T06:20:14.138Z,86.18
2018-11-10T06:23:19.162Z,86.11
2018-11-10T06:26:24.213Z,86.48
2018-11-10T06:29:29.259Z,86.39
2018-11-10T06:32:34.364Z,85.15
2018-11-10T06:35:41.369Z,85.11
2018-11-10T06:38:48.150Z,85.73
2018-11-10T06:41:54.802Z,85.19
2018-11-10T06:45:01.500Z,85.52
2018-11-10T06:48:06.611Z,85.85
2018-11-10T06:51:13.571Z,85.29
2018-11-10T06:54:23.062Z,86.09
2018-11-10T06:57:29.972Z,85.23
2018-11-10T07:00:36.691Z,84.80
2018-11-10T07:03:41.705Z,85.28
2018-11-10T07:06:46.819Z,84.51
2018-11-10T07:09:55.086Z,84.41
2018-11-10T07:13:04.499Z,84.78
2018-11-10T07:16:09.755Z,84.29
2018-11-10T07:19:14.943Z,85.36
2018-11-10T07:22:21.651Z,84.74
2018-11-10T07:25:26.701Z,84.52
2018-11-10T07:28:34.003Z,85.45
2018-11-10T07:31:41.143Z,84.03
2018-11-10T07:34:48.138Z,84.72
2018-11-10T07:37:54.446Z,84.90
2018-11-10T07:41:01.671Z,83.06
2018-11-10T07:44:06.857Z,83.62
2018-11-10T07:47:13.599Z,83.79
2018-11-10T07:50:18.737Z,84.96
2018-11-10T07:53:23.777Z,85.02
2018-11-10T07:56:30.986Z,84.61
2018-11-10T07:59:37.720Z,84.80
2018-11-10T08:02:43.909Z,84.52
2018-11-10T08:05:53.339Z,83.82
2018-11-10T08:08:58.378Z,85.38
2018-11-10T08:12:05.631Z,84.65
2018-11-10T08:15:12.934Z,84.85
2018-11-10T08:18:18.114Z,84.00
2018-11-10T08:21:24.629Z,84.27
2018-11-10T08:24:31.253Z,83.64
2018-11-10T08:27:38.239Z,83.49
2018-11-10T08:30:43.326Z,84.34
2018-11-10T08:33:50.230Z,84.11
2018-11-10T08:36:58.905Z,83.73
2018-11-10T08:40:06.926Z,84.69
2018-11-10T08:43:13.510Z,84.00
2018-11-10T08:46:18.591Z,84.94
2018-11-10T08:49:23.769Z,83.45
2018-11-10T08:52:35.746Z,83.23
2018-11-10T08:55:45.159Z,83.20
2018-11-10T08:58:52.203Z,82.41
2018-11-10T09:01:59.264Z,82.42
2018-11-10T09:05:07.684Z,81.07
2018-11-10T09:08:12.727Z,80.54
2018-11-10T09:11:19.415Z,81.00
2018-11-10T09:14:26.418Z,80.62
2018-11-10T09:17:33.280Z,80.85
2018-11-10T09:20:46.546Z,80.58
2018-11-10T09:23:58.082Z,79.56
2018-11-10T09:27:03.185Z,79.14
2018-11-10T09:30:13.106Z,78.07
2018-11-10T09:33:20.151Z,77.43
2018-11-10T09:36:28.226Z,78.06
2018-11-10T09:39:33.270Z,77.23
2018-11-10T09:42:38.522Z,77.04
2018-11-10T09:45:43.306Z,77.17
2018-11-10T09:48:48.330Z,76.49
2018-11-10T09:51:53.347Z,76.64
2018-11-10T09:54:58.343Z,76.36
2018-11-10T09:58:03.663Z,74.40
2018-11-10T10:01:15.030Z,72.93
2018-11-10T10:04:19.942Z,73.96
2018-11-10T10:07:24.965Z,72.72
2018-11-10T10:10:29.991Z,72.27
2018-11-10T10:13:34.999Z,72.03
2018-11-10T10:16:40.097Z,69.75
2018-11-10T10:19:45.082Z,68.67
2018-11-10T10:22:50.488Z,67.88
2018-11-10T10:25:55.538Z,66.69
2018-11-10T10:29:00.628Z,66.44
2018-11-10T10:35:36.875Z,68.94
2018-11-10T10:38:41.699Z,68.28
2018-11-10T10:41:46.729Z,68.25
2018-11-10T10:44:51.709Z,67.95
2018-11-10T10:47:56.714Z,68.37
2018-11-10T10:51:01.818Z,68.14
2018-11-10T10:54:10.906Z,66.18
2018-11-10T10:57:16.209Z,67.93
2018-11-10T11:00:27.270Z,67.48
2018-11-10T11:03:42.432Z,67.81
2018-11-10T11:06:50.608Z,67.75
2018-11-10T11:09:55.962Z,68.24
2018-11-10T11:13:03.839Z,68.07
2018-11-10T11:16:12.555Z,66.24
2018-11-10T11:19:19.527Z,65.53
2018-11-10T11:22:28.637Z,65.10
2018-11-10T11:25:35.323Z,64.23
2018-11-10T11:28:44.246Z,64.60
2018-11-10T11:31:53.459Z,65.50
2018-11-10T11:35:00.328Z,65.04
2018-11-10T11:38:05.523Z,65.48
2018-11-10T11:41:10.621Z,65.27
2018-11-10T11:44:17.428Z,65.74
2018-11-10T11:47:26.237Z,64.80
2018-11-10T11:50:31.274Z,64.54
2018-11-10T11:53:36.345Z,63.50
2018-11-10T11:56:41.370Z,63.28
2018-11-10T11:59:46.447Z,64.04
2018-11-10T12:02:51.525Z,61.34
2018-11-10T12:05:58.236Z,60.38
2018-11-10T12:09:06.139Z,62.00
2018-11-10T12:15:11.554Z,61.18
2018-11-10T12:18:17.609Z,60.51
2018-11-10T12:21:26.067Z,60.99
2018-11-10T12:24:32.621Z,61.03
2018-11-10T12:27:37.820Z,59.93
2018-11-10T12:30:42.793Z,59.71
2018-11-10T12:33:49.408Z,59.10
2018-11-10T12:36:56.566Z,58.44
2018-11-10T12:40:03.821Z,59.62
2018-11-10T12:43:12.605Z,59.31
2018-11-10T12:46:19.514Z,60.13
2018-11-10T12:49:27.048Z,61.39
2018-11-10T12:52:32.151Z,61.20
2018-11-10T12:55:42.386Z,59.20
2018-11-10T12:58:49.435Z,59.61
2018-11-10T13:01:56.409Z,61.25
2018-11-10T13:05:03.320Z,60.90
2018-11-10T13:08:08.467Z,61.97
2018-11-10T13:11:15.204Z,63.04
2018-11-10T13:14:22.339Z,63.13
2018-11-10T13:17:29.620Z,62.64
2018-11-10T13:20:34.886Z,62.57
2018-11-10T13:23:45.425Z,63.08
2018-11-10T13:26:52.692Z,62.29
2018-11-10T13:29:59.545Z,65.41
2018-11-10T13:33:06.449Z,65.06
2018-11-10T13:36:13.649Z,66.48
2018-11-10T13:39:20.954Z,67.27
2018-11-10T13:42:28.148Z,67.16
2018-11-10T13:45:35.000Z,67.73
2018-11-10T13:48:40.230Z,68.87
2018-11-10T13:51:45.650Z,69.68
2018-11-10T13:54:52.048Z,69.67
2018-11-10T13:57:57.096Z,71.45
2018-11-10T14:01:02.075Z,71.43
2018-11-10T14:04:07.069Z,71.70
2018-11-10T14:07:12.127Z,72.05
2018-11-10T14:10:19.515Z,73.01
2018-11-10T14:13:26.675Z,73.24
2018-11-10T14:16:33.676Z,74.15
2018-11-10T14:19:38.740Z,74.23
2018-11-10T14:22:44.781Z,75.79
2018-11-10T14:25:50.105Z,76.76
2018-11-10T14:28:57.559Z,76.17
2018-11-10T14:32:08.265Z,76.05
2018-11-10T14:35:17.693Z,76.82
2018-11-10T14:38:28.941Z,75.42
2018-11-10T14:41:33.948Z,76.65
2018-11-10T14:44:44.494Z,76.39
2018-11-10T14:47:49.629Z,78.08
2018-11-10T14:50:56.798Z,77.78
2018-11-10T14:54:01.831Z,78.78
2018-11-10T14:57:06.832Z,79.46
2018-11-10T15:00:17.146Z,80.65
2018-11-10T15:03:22.334Z,80.21
2018-11-10T15:06:27.383Z,80.65
2018-11-10T15:09:34.490Z,81.16
2018-11-10T15:12:42.980Z,81.50
2018-11-10T15:15:50.004Z,80.94
2018-11-10T15:18:57.010Z,80.24
2018-11-10T15:22:04.163Z,81.70
2018-11-10T15:25:12.914Z,81.88
2018-11-10T15:28:20.030Z,81.13
2018-11-10T15:31:26.664Z,80.73
2018-11-10T15:34:31.718Z,81.59
2018-11-10T15:37:38.366Z,81.02
2018-11-10T15:40:45.046Z,81.76
2018-11-10T15:43:52.115Z,81.36
2018-11-10T15:46:59.146Z,81.52
2018-11-10T15:50:07.976Z,80.46
2018-11-10T15:53:14.736Z,80.79
2018-11-10T15:56:19.761Z,81.15
2018-11-10T15:59:26.436Z,80.83
2018-11-10T16:02:33.439Z,81.90
2018-11-10T16:05:38.509Z,81.29
2018-11-10T16:08:43.532Z,82.03
2018-11-10T16:11:48.517Z,81.72
2018-11-10T16:14:53.606Z,82.32
2018-11-10T16:17:58.669Z,81.76
2018-11-10T16:21:03.809Z,81.96
2018-11-10T16:24:09.073Z,81.54
2018-11-10T16:27:15.779Z,80.04
2018-11-10T16:30:20.795Z,81.11
2018-11-10T16:33:25.806Z,80.95
2018-11-10T16:36:30.848Z,81.62
2018-11-10T16:39:35.954Z,82.16
2018-11-10T16:42:43.741Z,81.28
2018-11-10T16:45:50.387Z,82.57
2018-11-10T16:48:57.078Z,82.18
2018-11-10T16:52:02.144Z,82.36
2018-11-10T16:55:07.523Z,82.80
2018-11-10T16:58:16.366Z,82.22
2018-11-10T17:01:25.277Z,81.89
2018-11-10T17:04:32.083Z,81.61
2018-11-10T17:07:39.211Z,81.50
2018-11-10T17:10:46.367Z,81.59
2018-11-10T17:13:56.295Z,81.09
2018-11-10T17:17:01.331Z,80.76
2018-11-10T17:20:08.815Z,80.44
2018-11-10T17:23:13.917Z,80.51
2018-11-10T17:26:21.125Z,80.82
2018-11-10T17:29:27.258Z,81.21
2018-11-10T17:32:32.466Z,81.42
2018-11-10T17:35:39.636Z,81.21
2018-11-10T17:38:44.725Z,79.30
2018-11-10T17:41:51.396Z,80.67
2018-11-10T17:44:57.495Z,80.68
2018-11-10T17:48:09.964Z,79.72
2018-11-10T17:51:15.130Z,79.48
2018-11-10T17:54:20.246Z,80.76
2018-11-10T17:57:27.039Z,80.32
2018-11-10T18:00:32.240Z,79.35
2018-11-10T18:03:39.918Z,80.57
2018-11-10T18:06:47.049Z,80.40
2018-11-10T18:09:52.393Z,80.40
2018-11-10T18:12:59.737Z,79.93
2018-11-10T18:16:12.822Z,79.12
2018-11-10T18:19:20.003Z,78.68
2018-11-10T18:22:26.245Z,78.51
2018-11-10T18:25:32.941Z,78.54
2018-11-10T18:28:38.327Z,79.09
2018-11-10T18:31:45.429Z,78.91
2018-11-10T18:34:52.317Z,80.02
2018-11-10T18:37:59.124Z,79.39
2018-11-10T18:41:06.462Z,79.73
2018-11-10T18:44:11.662Z,80.02
2018-11-10T18:47:18.720Z,79.67
2018-11-10T18:50:23.819Z,80.78
2018-11-10T18:53:28.953Z,81.37
2018-11-10T18:56:34.020Z,80.55
2018-11-10T18:59:41.326Z,82.07
2018-11-10T19:02:48.376Z,81.14
2018-11-10T19:05:53.402Z,82.21
2018-11-10T19:08:58.854Z,82.20
2018-11-10T19:12:04.978Z,81.02
2018-11-10T19:15:15.548Z,81.12
2018-11-10T19:18:24.145Z,81.34
2018-11-10T19:21:29.333Z,81.91
2018-11-10T19:24:36.153Z,81.03
2018-11-10T19:27:42.821Z,81.15
2018-11-10T19:30:47.979Z,82.18
2018-11-10T19:33:54.050Z,81.43
2018-11-10T19:36:59.117Z,81.45
2018-11-10T19:40:05.827Z,80.30
2018-11-10T19:43:11.075Z,81.44
2018-11-10T19:46:16.117Z,81.55
2018-11-10T19:49:21.412Z,82.54
2018-11-10T19:52:26.388Z,83.81
2018-11-10T19:55:31.426Z,84.18
2018-11-10T19:58:36.466Z,84.39
2018-11-10T20:01:41.542Z,84.97
2018-11-10T20:04:46.859Z,84.91
2018-11-10T20:07:51.902Z,84.88
2018-11-10T20:10:57.005Z,84.14
2018-11-10T20:14:02.085Z,84.71
2018-11-10T20:17:07.022Z,85.67
2018-11-10T20:20:16.438Z,85.44
2018-11-10T20:23:21.516Z,84.43
2018-11-10T20:26:27.748Z,85.74
2018-11-10T20:29:32.787Z,85.22
2018-11-10T20:32:38.524Z,84.69
2018-11-10T20:35:43.577Z,85.16
2018-11-10T20:38:48.757Z,84.57
2018-11-10T20:41:53.727Z,85.25
2018-11-10T20:44:58.783Z,85.95
2018-11-10T20:48:04.335Z,85.03
2018-11-10T20:51:09.500Z,85.24
2018-11-10T20:54:14.506Z,85.58
2018-11-10T20:57:21.277Z,85.93
2018-11-10T21:00:28.767Z,86.32
2018-11-10T21:03:35.947Z,86.54
2018-11-10T21:06:42.633Z,85.83
2018-11-10T21:09:49.072Z,86.89
2018-11-10T21:15:05.846Z,86.95
2018-11-10T21:18:12.558Z,86.94
2018-11-10T21:21:17.561Z,86.43
2018-11-10T21:24:24.362Z,86.90
2018-11-10T21:27:29.390Z,87.08
2018-11-10T21:30:34.411Z,87.55
2018-11-10T21:33:41.597Z,87.32
2018-11-10T21:36:46.875Z,87.13
2018-11-10T21:39:51.984Z,87.09
2018-11-10T21:42:57.056Z,85.96
2018-11-10T21:46:02.116Z,87.56
2018-11-10T21:49:09.594Z,87.76
2018-11-10T21:52:14.651Z,87.73
2018-11-10T21:55:19.885Z,86.82
2018-11-10T21:58:25.018Z,87.26
2018-11-10T22:01:30.149Z,87.72
2018-11-10T22:04:36.888Z,87.06
2018-11-10T22:07:41.881Z,87.66
2018-11-10T22:10:47.202Z,87.59
2018-11-10T22:13:52.204Z,86.94
2018-11-10T22:16:57.402Z,87.13
2018-11-10T22:20:02.902Z,87.19
2018-11-10T22:23:08.001Z,87.31
2018-11-10T22:26:12.972Z,86.45
2018-11-10T22:29:18.025Z,86.14
2018-11-10T22:32:23.211Z,87.05
2018-11-10T22:35:28.294Z,86.88
2018-11-10T22:38:33.287Z,87.05
2018-11-10T22:41:38.938Z,86.65
2018-11-10T22:44:43.934Z,88.19
2018-11-10T22:47:49.607Z,87.87
2018-11-10T22:50:54.549Z,87.04
2018-11-10T22:53:59.550Z,87.88
2018-11-10T22:57:04.905Z,86.82
2018-11-10T23:03:13.230Z,86.95
2018-11-10T23:06:18.254Z,86.81
2018-11-10T23:09:23.445Z,87.58
2018-11-10T23:12:28.463Z,85.89
2018-11-10T23:15:33.453Z,86.56
2018-11-10T23:18:38.516Z,86.76
2018-11-10T23:21:43.579Z,86.71
2018-11-10T23:24:48.600Z,87.34
2018-11-10T23:27:53.585Z,86.96
2018-11-10T23:30:58.622Z,87.46
2018-11-10T23:34:04.049Z,86.96
2018-11-10T23:37:09.084Z,86.59
2018-11-10T23:40:16.890Z,87.00
2018-11-10T23:43:24.870Z,87.16
2018-11-10T23:46:29.912Z,88.52
2018-11-10T23:49:34.981Z,87.24
2018-11-10T23:52:41.613Z,88.33
2018-11-10T23:55:46.593Z,87.67
2018-11-10T23:58:54.557Z,87.01
